CYYZ/YYZ METAR and TAF weather

Enter ICAO airport designator
Station Type Date Time Source
CYYZ METAR 2020/03/28 14:00 UTC NOAA

CYYZ 281400Z 10009G17KT 15SM -RA OVC050 05/00 A2996 RMK SC8 SLP153


Station Type Date Time Source
CYYZ Decoded METAR 2020/03/28 14:00 UTC NOAA

Toronto Pearson Int'L. Ont., Canada (CYYZ) 43-40N 079-38W 173M
Mar 28, 2020 - 10:00 AM EDT / 2020.03.28 1400 UTC
Wind: from the E (100 degrees) at 10 MPH (9 KT) gusting to 20 MPH (17 KT):0
Visibility: 15 mile(s):0
Sky conditions: overcast
Weather: light rain
Temperature: 41 F (5 C)
Dew Point: 32 F (0 C)
Relative Humidity: 70%
Pressure (altimeter): 29.96 in. Hg (1014 hPa)
ob: CYYZ 281400Z 10009G17KT 15SM -RA OVC050 05/00 A2996 RMK SC8 SLP153
cycle: 14

Station Type Date Time Source
CYYZ TAF 2020/03/28 15:42 UTC NOAA

TAF CYYZ 281438Z 2815/2918 08012G22KT P6SM OVC100
TEMPO 2815/2818 P6SM -RA BKN020 OVC080
FM281800 08015G25KT P6SM SCT015 OVC040
TEMPO 2818/2821 5SM -RA BR OVC015
FM282100 08015G25KT 5SM -RA -DZ BR OVC015 PROB30 2821/2824 4SM -DZ BR BKN008 OVC015
FM290000 08015G25KT 3SM -RA -DZ BR OVC008
FM290300 08015G25KT 2SM -RA -DZ BR OVC004
FM290500 08015G25KT 11/2SM -RA BR OVC003
FM291000 08012G22KT 2SM SHRA BR OVC002 PROB30 2910/2913 1SM +TSRA BR OVC002CB
FM291300 09012KT 11/2SM -RA BR OVC002
FM291500 14008KT 1/2SM -DZ -RA FG VV002
BECMG 2916/2918 21015G25KT
RMK NXT FCST BY 281800Z

Example: see airport list